createdAt,value
2019-05-01T00:00:25.712Z,7.70
2019-05-01T00:01:30.816Z,7.40
2019-05-01T00:02:50.703Z,7.10
2019-05-01T00:04:10.601Z,7.78
2019-05-01T00:05:20.377Z,7.65
2019-05-01T00:06:38.584Z,7.20
2019-05-01T00:07:39.995Z,6.90
2019-05-01T00:08:41.428Z,7.03
2019-05-01T00:09:43.272Z,7.22
2019-05-01T00:10:44.655Z,7.28
2019-05-01T00:11:46.142Z,7.30
2019-05-01T00:12:47.529Z,6.55
2019-05-01T00:13:49.021Z,7.22
2019-05-01T00:14:50.505Z,7.45
2019-05-01T00:15:52.608Z,7.83
2019-05-01T00:16:54.145Z,7.55
2019-05-01T00:17:55.540Z,7.10
2019-05-01T00:18:57.127Z,6.90
2019-05-01T00:19:58.725Z,6.72
2019-05-01T00:21:01.305Z,7.22
2019-05-01T00:22:02.798Z,7.08
2019-05-01T00:23:04.286Z,7.05
2019-05-01T00:24:05.703Z,6.87
2019-05-01T00:25:07.179Z,6.95
2019-05-01T00:26:08.574Z,6.55
2019-05-01T00:27:10.155Z,6.90
2019-05-01T00:28:11.955Z,6.78
2019-05-01T00:29:14.548Z,6.95
2019-05-01T00:30:29.305Z,6.85
2019-05-01T00:31:21.534Z,6.43
2019-05-01T00:32:23.021Z,6.83
2019-05-01T00:33:24.407Z,7.15
2019-05-01T00:34:25.812Z,6.15
2019-05-01T00:35:27.293Z,7.03
2019-05-01T00:36:28.793Z,6.33
2019-05-01T00:37:30.368Z,7.25
2019-05-01T00:38:31.762Z,5.90
2019-05-01T00:39:33.325Z,6.80
2019-05-01T00:40:34.776Z,6.10
2019-05-01T00:41:36.166Z,6.78
2019-05-01T00:42:37.562Z,6.50
2019-05-01T00:43:38.945Z,6.28
2019-05-01T00:44:40.529Z,6.70
2019-05-01T00:45:41.925Z,6.58
2019-05-01T00:46:44.329Z,6.62
2019-05-01T00:47:45.803Z,6.25
2019-05-01T00:48:47.200Z,6.12
2019-05-01T00:49:49.169Z,6.37
2019-05-01T00:50:50.560Z,6.53
2019-05-01T00:51:51.944Z,6.17
2019-05-01T00:52:53.326Z,6.42
2019-05-01T00:53:54.714Z,6.60
2019-05-01T00:55:14.633Z,6.80
2019-05-01T00:56:23.979Z,6.20
2019-05-01T00:57:35.880Z,6.28
2019-05-01T00:58:41.972Z,6.47
2019-05-01T00:59:45.291Z,6.60
2019-05-01T01:01:03.818Z,6.15
2019-05-01T01:02:07.096Z,5.83
2019-05-01T01:03:08.597Z,5.70
2019-05-01T01:04:11.885Z,6.03
2019-05-01T01:05:13.284Z,6.15
2019-05-01T01:06:14.980Z,6.33
2019-05-01T01:07:16.488Z,6.10
2019-05-01T01:08:17.910Z,5.87
2019-05-01T01:09:20.622Z,6.25
2019-05-01T01:10:22.113Z,5.95
2019-05-01T01:11:23.613Z,6.45
2019-05-01T01:12:24.992Z,6.33
2019-05-01T01:13:26.395Z,6.15
2019-05-01T01:14:27.776Z,6.35
2019-05-01T01:15:29.176Z,5.90
2019-05-01T01:16:30.760Z,5.70
2019-05-01T01:17:32.113Z,5.78
2019-05-01T01:18:33.494Z,5.50
2019-05-01T01:19:34.886Z,6.67
2019-05-01T01:20:36.275Z,6.15
2019-05-01T01:21:37.782Z,6.15
2019-05-01T01:22:39.153Z,6.40
2019-05-01T01:23:40.948Z,6.05
2019-05-01T01:24:42.428Z,6.08
2019-05-01T01:25:44.124Z,6.25
2019-05-01T01:26:45.543Z,5.50
2019-05-01T01:27:47.020Z,6.30
2019-05-01T01:28:48.414Z,6.10
2019-05-01T01:29:49.800Z,5.92
2019-05-01T01:30:56.560Z,6.03
2019-05-01T01:31:54.720Z,5.67
2019-05-01T01:32:56.193Z,5.60
2019-05-01T01:33:57.588Z,5.60
2019-05-01T01:34:58.966Z,5.72
2019-05-01T01:36:00.374Z,6.08
2019-05-01T01:37:01.782Z,5.78
2019-05-01T01:38:03.268Z,5.05
2019-05-01T01:39:05.551Z,5.45
2019-05-01T01:40:08.237Z,6.05
2019-05-01T01:41:10.310Z,5.35
2019-05-01T01:42:11.893Z,5.65
2019-05-01T01:43:34.625Z,6.00
2019-05-01T01:44:38.605Z,5.25
2019-05-01T01:45:42.096Z,5.33
2019-05-01T01:46:45.874Z,5.35
2019-05-01T01:48:06.217Z,5.65
2019-05-01T01:49:07.903Z,5.83
2019-05-01T01:50:09.479Z,6.15
2019-05-01T01:51:11.161Z,5.40
2019-05-01T01:52:13.345Z,5.47
2019-05-01T01:53:17.996Z,5.47
2019-05-01T01:54:19.564Z,5.05
2019-05-01T01:55:21.260Z,5.35
2019-05-01T01:56:22.641Z,4.95
2019-05-01T01:57:24.242Z,5.35
2019-05-01T01:58:25.730Z,4.95
2019-05-01T01:59:27.767Z,4.95
2019-05-01T02:00:31.000Z,5.12
2019-05-01T02:01:43.239Z,5.20
2019-05-01T02:02:46.529Z,5.08
2019-05-01T02:04:06.536Z,5.03
2019-05-01T02:05:09.860Z,5.15
2019-05-01T02:06:11.772Z,4.93
2019-05-01T02:07:13.193Z,4.78
2019-05-01T02:08:14.711Z,5.33
2019-05-01T02:09:16.337Z,5.22
2019-05-01T02:10:18.035Z,4.72
2019-05-01T02:11:19.803Z,4.42
2019-05-01T02:12:21.674Z,5.00
2019-05-01T02:13:23.400Z,4.70
2019-05-01T02:14:24.897Z,4.43
2019-05-01T02:15:26.387Z,4.50
2019-05-01T02:16:27.773Z,4.45
2019-05-01T02:17:29.162Z,4.53
2019-05-01T02:18:30.655Z,4.80
2019-05-01T02:19:32.077Z,4.67
2019-05-01T02:20:33.461Z,4.30
2019-05-01T02:21:34.852Z,4.30
2019-05-01T02:22:36.228Z,4.55
2019-05-01T02:23:37.627Z,4.70
2019-05-01T02:24:39.209Z,4.00
2019-05-01T02:25:41.893Z,4.37
2019-05-01T02:26:48.034Z,3.85
2019-05-01T02:27:54.084Z,3.62
2019-05-01T02:29:03.408Z,4.00
2019-05-01T02:30:07.239Z,4.42
2019-05-01T02:31:27.947Z,3.92
2019-05-01T02:32:27.305Z,4.37
2019-05-01T02:33:28.781Z,3.90
2019-05-01T02:34:30.983Z,3.90
2019-05-01T02:35:34.097Z,3.83
2019-05-01T02:36:35.884Z,3.75
2019-05-01T02:37:37.469Z,4.50
2019-05-01T02:38:40.457Z,3.90
2019-05-01T02:39:42.658Z,3.80
2019-05-01T02:40:52.930Z,3.80
2019-05-01T02:42:00.157Z,3.90
2019-05-01T02:43:02.487Z,3.97
2019-05-01T02:44:08.952Z,4.25
2019-05-01T02:45:10.453Z,4.12
2019-05-01T02:46:14.045Z,4.42
2019-05-01T02:47:19.032Z,3.87
2019-05-01T02:48:21.927Z,3.60
2019-05-01T02:49:43.840Z,4.12
2019-05-01T02:50:48.835Z,4.67
2019-05-01T02:51:51.446Z,3.92
2019-05-01T02:52:53.121Z,4.05
2019-05-01T02:53:55.218Z,4.60
2019-05-01T02:55:00.898Z,4.08
2019-05-01T02:56:14.302Z,4.42
2019-05-01T02:57:18.184Z,3.97
2019-05-01T02:58:19.587Z,4.10
2019-05-01T02:59:22.969Z,4.10
2019-05-01T03:00:24.670Z,4.30
2019-05-01T03:01:26.360Z,4.00
2019-05-01T03:02:28.753Z,3.87
2019-05-01T03:03:33.442Z,4.00
2019-05-01T03:04:35.252Z,3.70
2019-05-01T03:05:36.763Z,3.60
2019-05-01T03:06:38.789Z,4.10
2019-05-01T03:07:40.169Z,3.98
2019-05-01T03:08:41.955Z,3.80
2019-05-01T03:09:43.427Z,4.20
2019-05-01T03:10:44.933Z,3.80
2019-05-01T03:11:48.850Z,3.40
2019-05-01T03:12:52.142Z,3.67
2019-05-01T03:13:57.394Z,3.80
2019-05-01T03:15:02.164Z,3.83
2019-05-01T03:16:07.166Z,3.73
2019-05-01T03:17:29.171Z,3.50
2019-05-01T03:18:32.465Z,3.30
2019-05-01T03:19:36.067Z,3.70
2019-05-01T03:20:56.565Z,2.77
2019-05-01T03:22:19.054Z,3.85
2019-05-01T03:23:28.172Z,3.45
2019-05-01T03:24:29.740Z,3.05
2019-05-01T03:25:31.487Z,3.40
2019-05-01T03:26:33.866Z,3.37
2019-05-01T03:27:36.268Z,3.58
2019-05-01T03:28:37.710Z,3.40
2019-05-01T03:29:39.564Z,3.40
2019-05-01T03:30:41.066Z,2.95
2019-05-01T03:31:42.540Z,3.67
2019-05-01T03:32:44.146Z,3.15
2019-05-01T03:33:46.358Z,3.77
2019-05-01T03:34:52.233Z,3.25
2019-05-01T03:35:52.074Z,3.55
2019-05-01T03:36:53.713Z,3.17
2019-05-01T03:37:55.319Z,3.65
2019-05-01T03:38:57.150Z,3.20
2019-05-01T03:39:58.636Z,3.58
2019-05-01T03:41:00.232Z,3.33
2019-05-01T03:42:01.914Z,3.98
2019-05-01T03:43:03.602Z,3.62
2019-05-01T03:44:05.482Z,3.40
2019-05-01T03:45:07.063Z,3.30
2019-05-01T03:46:09.128Z,3.35
2019-05-01T03:47:10.510Z,3.00
2019-05-01T03:48:12.101Z,3.30
2019-05-01T03:49:14.020Z,3.42
2019-05-01T03:50:15.506Z,3.35
2019-05-01T03:51:16.889Z,3.10
2019-05-01T03:52:18.381Z,3.37
2019-05-01T03:53:19.973Z,3.35
2019-05-01T03:54:21.560Z,3.33
2019-05-01T03:55:23.042Z,3.20
2019-05-01T03:56:24.437Z,3.47
2019-05-01T03:57:26.014Z,3.25
2019-05-01T03:58:27.511Z,3.00
2019-05-01T03:59:30.100Z,3.30
2019-05-01T04:00:39.675Z,3.72
2019-05-01T04:01:49.012Z,3.33
2019-05-01T04:02:58.056Z,3.67
2019-05-01T04:04:01.342Z,3.17
2019-05-01T04:05:03.989Z,3.12
2019-05-01T04:06:05.702Z,3.45
2019-05-01T04:07:07.613Z,3.60
2019-05-01T04:08:09.418Z,3.40
2019-05-01T04:09:11.030Z,3.40
2019-05-01T04:10:12.462Z,3.90
2019-05-01T04:11:13.937Z,3.67
2019-05-01T04:12:15.840Z,3.10
2019-05-01T04:13:17.413Z,3.40
2019-05-01T04:14:18.872Z,3.00
2019-05-01T04:15:20.461Z,3.40
2019-05-01T04:16:21.967Z,3.83
2019-05-01T04:17:25.282Z,3.22
2019-05-01T04:18:27.488Z,3.33
2019-05-01T04:19:30.099Z,2.77
2019-05-01T04:20:32.161Z,2.83
2019-05-01T04:21:35.546Z,3.17
2019-05-01T04:22:38.140Z,3.17
2019-05-01T04:23:41.514Z,2.83
2019-05-01T04:24:43.008Z,3.10
2019-05-01T04:25:45.369Z,2.87
2019-05-01T04:26:47.240Z,3.10
2019-05-01T04:27:50.667Z,3.58
2019-05-01T04:29:03.657Z,2.85
2019-05-01T04:30:10.169Z,2.75
2019-05-01T04:31:31.401Z,2.67
2019-05-01T04:32:50.046Z,2.92
2019-05-01T04:33:38.479Z,3.00
2019-05-01T04:34:41.793Z,3.47
2019-05-01T04:35:47.886Z,2.87
2019-05-01T04:37:07.106Z,2.72
2019-05-01T04:38:08.585Z,2.55
2019-05-01T04:39:10.293Z,3.15
2019-05-01T04:40:12.172Z,3.10
2019-05-01T04:41:13.981Z,2.62
2019-05-01T04:42:15.570Z,2.30
2019-05-01T04:43:17.272Z,3.30
2019-05-01T04:44:18.860Z,2.62
2019-05-01T04:45:20.622Z,3.12
2019-05-01T04:46:22.490Z,3.02
2019-05-01T04:47:24.301Z,3.10
2019-05-01T04:48:25.871Z,2.67
2019-05-01T04:49:27.969Z,2.40
2019-05-01T04:50:29.536Z,2.62
2019-05-01T04:51:31.439Z,2.75
2019-05-01T04:52:32.946Z,2.60
2019-05-01T04:53:34.430Z,2.62
2019-05-01T04:54:35.812Z,2.75
2019-05-01T04:55:38.112Z,2.58
2019-05-01T04:56:39.481Z,2.70
2019-05-01T04:57:40.981Z,2.50
2019-05-01T04:58:42.359Z,2.45
2019-05-01T04:59:43.755Z,2.37
2019-05-01T05:00:45.425Z,2.60
2019-05-01T05:01:52.006Z,2.55
2019-05-01T05:03:05.023Z,2.47
2019-05-01T05:04:01.554Z,2.20
2019-05-01T05:05:04.646Z,2.60
2019-05-01T05:06:06.524Z,2.70
2019-05-01T05:07:08.011Z,2.45
2019-05-01T05:08:09.710Z,2.15
2019-05-01T05:09:11.492Z,2.70
2019-05-01T05:10:12.884Z,2.60
2019-05-01T05:11:16.456Z,2.40
2019-05-01T05:12:23.520Z,2.37
2019-05-01T05:13:26.897Z,2.22
2019-05-01T05:14:33.280Z,2.45
2019-05-01T05:15:54.485Z,2.20
2019-05-01T05:17:06.906Z,2.25
2019-05-01T05:18:08.411Z,2.27
2019-05-01T05:19:09.988Z,2.42
2019-05-01T05:20:11.393Z,2.12
2019-05-01T05:21:12.804Z,2.40
2019-05-01T05:22:16.511Z,2.25
2019-05-01T05:23:18.128Z,2.02
2019-05-01T05:24:19.960Z,2.77
2019-05-01T05:25:21.837Z,2.30
2019-05-01T05:26:23.235Z,2.37
2019-05-01T05:27:25.421Z,2.45
2019-05-01T05:28:31.234Z,2.25
2019-05-01T05:29:32.147Z,2.00
2019-05-01T05:30:35.788Z,2.50
2019-05-01T05:31:39.307Z,2.20
2019-05-01T05:32:42.825Z,2.58
2019-05-01T05:33:47.073Z,2.55
2019-05-01T05:34:52.059Z,2.02
2019-05-01T05:35:55.328Z,2.60
2019-05-01T05:36:59.425Z,1.87
2019-05-01T05:38:08.386Z,1.92
2019-05-01T05:39:12.599Z,2.30
2019-05-01T05:40:16.866Z,2.25
2019-05-01T05:41:18.582Z,2.20
2019-05-01T05:42:20.192Z,2.10
2019-05-01T05:43:22.100Z,1.85
2019-05-01T05:44:23.699Z,2.10
2019-05-01T05:45:25.825Z,1.87
2019-05-01T05:46:27.375Z,2.30
2019-05-01T05:47:29.169Z,2.17
2019-05-01T05:48:30.952Z,1.85
2019-05-01T05:49:32.741Z,2.40
2019-05-01T05:50:52.168Z,2.00
2019-05-01T05:51:58.974Z,1.90
2019-05-01T05:53:09.867Z,2.20
2019-05-01T05:54:31.961Z,2.10
2019-05-01T05:55:39.663Z,2.35
2019-05-01T05:56:49.490Z,2.35
2019-05-01T05:57:58.002Z,2.20
2019-05-01T05:59:04.190Z,1.95
2019-05-01T06:00:14.527Z,1.80
2019-05-01T06:01:22.270Z,2.25
2019-05-01T06:02:28.200Z,2.33
2019-05-01T06:03:49.845Z,2.30
2019-05-01T06:04:56.744Z,2.12
2019-05-01T06:06:11.397Z,2.27
2019-05-01T06:07:19.687Z,1.95
2019-05-01T06:08:26.114Z,2.10
2019-05-01T06:09:31.996Z,2.15
2019-05-01T06:10:36.192Z,1.92
2019-05-01T06:11:59.525Z,1.98
2019-05-01T06:13:17.901Z,1.90
2019-05-01T06:14:40.173Z,2.10
2019-05-01T06:16:00.552Z,1.98
2019-05-01T06:17:03.927Z,2.25
2019-05-01T06:18:07.389Z,2.05
2019-05-01T06:19:25.625Z,2.02
2019-05-01T06:20:29.099Z,2.00
2019-05-01T06:21:34.706Z,1.95
2019-05-01T06:22:55.035Z,2.10
2019-05-01T06:24:05.935Z,2.00
2019-05-01T06:25:06.632Z,1.90
2019-05-01T06:26:26.894Z,1.92
2019-05-01T06:27:29.670Z,2.12
2019-05-01T06:28:31.065Z,2.15
2019-05-01T06:29:35.802Z,2.25
2019-05-01T06:30:36.928Z,2.10
2019-05-01T06:31:38.858Z,2.20
2019-05-01T06:32:40.477Z,2.27
2019-05-01T06:33:44.381Z,2.05
2019-05-01T06:34:46.292Z,2.10
2019-05-01T06:35:47.893Z,2.17
2019-05-01T06:36:51.145Z,1.90
2019-05-01T06:38:00.699Z,2.40
2019-05-01T06:39:06.875Z,2.17
2019-05-01T06:40:11.703Z,2.25
2019-05-01T06:41:15.809Z,2.10
2019-05-01T06:42:17.788Z,2.17
2019-05-01T06:43:39.760Z,2.02
2019-05-01T06:44:46.428Z,1.98
2019-05-01T06:45:51.588Z,1.80
2019-05-01T06:47:03.584Z,2.33
2019-05-01T06:48:09.295Z,2.33
2019-05-01T06:49:12.882Z,2.00
2019-05-01T06:50:22.201Z,2.45
2019-05-01T06:51:34.382Z,2.37
2019-05-01T06:52:37.876Z,2.30
2019-05-01T06:53:39.842Z,1.60
2019-05-01T06:54:42.545Z,1.90
2019-05-01T06:55:44.015Z,2.05
2019-05-01T06:56:46.421Z,2.30
2019-05-01T06:57:48.252Z,2.15
2019-05-01T06:58:51.116Z,2.05
2019-05-01T06:59:54.228Z,2.40
2019-05-01T07:00:55.840Z,2.40
2019-05-01T07:02:00.120Z,2.30
2019-05-01T07:03:05.952Z,2.47
2019-05-01T07:04:05.222Z,2.50
2019-05-01T07:05:08.963Z,2.12
2019-05-01T07:06:14.364Z,2.33
2019-05-01T07:07:25.316Z,2.20
2019-05-01T07:08:24.810Z,2.20
2019-05-01T07:09:28.066Z,1.80
2019-05-01T07:10:31.463Z,2.22
2019-05-01T07:11:30.689Z,2.22
2019-05-01T07:12:33.427Z,2.10
2019-05-01T07:13:40.066Z,1.85
2019-05-01T07:14:40.559Z,2.08
2019-05-01T07:15:42.067Z,2.22
2019-05-01T07:16:43.475Z,2.00
2019-05-01T07:17:47.814Z,2.10
2019-05-01T07:18:49.760Z,2.02
2019-05-01T07:20:12.050Z,1.98
2019-05-01T07:21:12.280Z,2.67
2019-05-01T07:22:13.752Z,1.80
2019-05-01T07:23:17.372Z,1.90
2019-05-01T07:24:19.532Z,1.98
2019-05-01T07:25:20.920Z,2.27
2019-05-01T07:26:22.851Z,2.17
2019-05-01T07:27:25.180Z,1.90
2019-05-01T07:28:33.588Z,1.85
2019-05-01T07:29:33.868Z,2.37
2019-05-01T07:30:42.918Z,1.87
2019-05-01T07:31:44.404Z,2.10
2019-05-01T07:32:46.284Z,2.02
2019-05-01T07:33:51.202Z,1.80
2019-05-01T07:34:51.372Z,1.85
2019-05-01T07:35:54.051Z,2.08
2019-05-01T07:36:56.549Z,1.72
2019-05-01T07:38:02.295Z,2.15
2019-05-01T07:39:04.428Z,1.92
2019-05-01T07:40:06.848Z,1.95
2019-05-01T07:41:08.222Z,2.25
2019-05-01T07:42:26.856Z,2.05
2019-05-01T07:43:30.137Z,2.05
2019-05-01T07:44:34.108Z,2.17
2019-05-01T07:45:56.163Z,1.67
2019-05-01T07:47:11.822Z,1.92
2019-05-01T07:48:16.812Z,1.70
2019-05-01T07:49:21.869Z,2.37
2019-05-01T07:50:29.921Z,1.70
2019-05-01T07:51:27.529Z,1.90
2019-05-01T07:52:29.612Z,2.08
2019-05-01T07:53:31.804Z,1.90
2019-05-01T07:54:37.777Z,2.20
2019-05-01T07:55:37.277Z,1.98
2019-05-01T07:56:38.671Z,2.20
2019-05-01T07:57:41.281Z,1.72
2019-05-01T07:58:42.944Z,2.05
2019-05-01T07:59:44.529Z,2.17
2019-05-01T08:00:54.361Z,1.70
2019-05-01T08:01:57.649Z,2.02
2019-05-01T08:03:02.630Z,2.60
2019-05-01T08:04:03.767Z,2.00
2019-05-01T08:05:09.935Z,1.98
2019-05-01T08:06:09.653Z,2.00
2019-05-01T08:07:11.149Z,2.45
2019-05-01T08:08:12.517Z,2.00
2019-05-01T08:09:15.187Z,2.33
2019-05-01T08:10:21.010Z,2.15
2019-05-01T08:11:20.601Z,1.90
2019-05-01T08:12:24.099Z,1.95
2019-05-01T08:13:25.522Z,1.72
2019-05-01T08:14:27.006Z,1.95
2019-05-01T08:15:32.374Z,2.10
2019-05-01T08:16:31.784Z,2.08
2019-05-01T08:17:35.088Z,1.77
2019-05-01T08:18:38.367Z,1.77
2019-05-01T08:19:47.538Z,1.70
2019-05-01T08:20:53.824Z,1.75
2019-05-01T08:22:01.826Z,2.05
2019-05-01T08:23:00.449Z,1.80
2019-05-01T08:24:01.941Z,2.10
2019-05-01T08:25:05.133Z,2.10
2019-05-01T08:26:08.793Z,1.70
2019-05-01T08:27:15.726Z,1.90
2019-05-01T08:28:19.553Z,1.70
2019-05-01T08:29:42.144Z,1.90
2019-05-01T08:30:52.710Z,1.75
2019-05-01T08:32:04.563Z,1.90
2019-05-01T08:33:17.217Z,1.85
2019-05-01T08:34:27.441Z,2.20
2019-05-01T08:35:31.745Z,2.10
2019-05-01T08:36:33.608Z,1.98
2019-05-01T08:37:35.020Z,2.17
2019-05-01T08:38:36.437Z,1.72
2019-05-01T08:39:39.643Z,1.60
2019-05-01T08:40:41.324Z,2.00
2019-05-01T08:41:42.826Z,2.02
2019-05-01T08:42:44.291Z,1.90
2019-05-01T08:43:48.927Z,1.70
2019-05-01T08:45:05.185Z,2.02
2019-05-01T08:46:16.529Z,1.98
2019-05-01T08:47:20.746Z,2.02
2019-05-01T08:48:35.755Z,2.00
2019-05-01T08:49:42.261Z,1.87
2019-05-01T08:50:43.079Z,1.72
2019-05-01T08:51:44.552Z,2.02
2019-05-01T08:52:47.365Z,1.67
2019-05-01T08:53:52.740Z,2.10
2019-05-01T08:54:54.813Z,1.77
2019-05-01T08:55:56.124Z,2.02
2019-05-01T08:56:58.284Z,1.70
2019-05-01T08:58:00.900Z,1.90
2019-05-01T08:59:03.588Z,1.65
2019-05-01T09:00:06.880Z,1.70
2019-05-01T09:01:10.801Z,1.70
2019-05-01T09:02:11.574Z,1.75
2019-05-01T09:03:13.616Z,1.80
2019-05-01T09:04:18.706Z,1.87
2019-05-01T09:05:28.763Z,2.10
2019-05-01T09:06:34.558Z,1.82
2019-05-01T09:07:29.007Z,1.60
2019-05-01T09:08:32.013Z,1.52
2019-05-01T09:09:33.867Z,1.98
2019-05-01T09:10:35.232Z,1.50
2019-05-01T09:11:37.426Z,1.50
2019-05-01T09:12:42.552Z,1.60
2019-05-01T09:13:42.136Z,1.75
2019-05-01T09:14:43.511Z,1.70
2019-05-01T09:15:48.298Z,1.90
2019-05-01T09:16:48.224Z,1.57
2019-05-01T09:17:49.615Z,1.80
2019-05-01T09:18:50.995Z,1.80
2019-05-01T09:19:52.484Z,1.55
2019-05-01T09:20:55.848Z,1.67
2019-05-01T09:21:57.261Z,1.82
2019-05-01T09:22:58.673Z,1.85
2019-05-01T09:24:00.185Z,1.70
2019-05-01T09:25:01.891Z,1.70
2019-05-01T09:26:16.340Z,1.87
2019-05-01T09:27:35.243Z,1.75
2019-05-01T09:28:53.729Z,1.70
2019-05-01T09:29:57.041Z,1.60
2019-05-01T09:31:02.271Z,1.92
2019-05-01T09:32:05.095Z,1.55
2019-05-01T09:33:07.187Z,1.72
2019-05-01T09:34:09.536Z,1.70
2019-05-01T09:35:15.849Z,1.72
2019-05-01T09:36:14.524Z,1.87
2019-05-01T09:37:18.943Z,1.72
2019-05-01T09:38:20.354Z,1.82
2019-05-01T09:39:22.020Z,1.50
2019-05-01T09:40:23.416Z,1.70
2019-05-01T09:41:37.145Z,1.98
2019-05-01T09:42:28.200Z,1.90
2019-05-01T09:43:30.953Z,1.60
2019-05-01T09:44:33.027Z,1.70
2019-05-01T09:45:34.550Z,1.57
2019-05-01T09:46:35.958Z,1.87
2019-05-01T09:47:37.465Z,1.60
2019-05-01T09:48:39.160Z,1.67
2019-05-01T09:49:40.542Z,1.40
2019-05-01T09:50:43.948Z,2.00
2019-05-01T09:52:03.630Z,1.70
2019-05-01T09:53:18.942Z,1.70
2019-05-01T09:54:43.011Z,2.00
2019-05-01T09:55:45.673Z,1.80
2019-05-01T09:56:47.262Z,1.72
2019-05-01T09:57:48.652Z,1.70
2019-05-01T09:58:50.044Z,1.80
2019-05-01T09:59:51.442Z,1.47
2019-05-01T10:00:54.721Z,1.70
2019-05-01T10:01:56.120Z,1.70
2019-05-01T10:02:57.597Z,1.80
2019-05-01T10:03:58.992Z,1.75
2019-05-01T10:05:01.990Z,1.85
2019-05-01T10:06:03.803Z,1.90
2019-05-01T10:07:07.081Z,1.72
2019-05-01T10:08:14.460Z,1.95
2019-05-01T10:09:16.740Z,1.85
2019-05-01T10:10:19.172Z,1.50
2019-05-01T10:11:20.552Z,1.70
2019-05-01T10:12:21.948Z,1.75
2019-05-01T10:13:24.156Z,1.40
2019-05-01T10:14:26.917Z,1.62
2019-05-01T10:15:28.327Z,1.62
2019-05-01T10:16:29.723Z,1.62
2019-05-01T10:17:31.208Z,1.50
2019-05-01T10:18:32.596Z,1.52
2019-05-01T10:19:34.080Z,1.70
2019-05-01T10:20:35.608Z,1.92
2019-05-01T10:21:37.106Z,1.80
2019-05-01T10:22:38.736Z,1.75
2019-05-01T10:23:41.154Z,1.80
2019-05-01T10:24:42.662Z,1.50
2019-05-01T10:25:47.969Z,1.72
2019-05-01T10:26:55.180Z,1.65
2019-05-01T10:27:56.371Z,1.90
2019-05-01T10:29:08.420Z,1.70
2019-05-01T10:30:12.415Z,1.67
2019-05-01T10:31:24.812Z,1.50
2019-05-01T10:32:28.092Z,1.90
2019-05-01T10:33:34.401Z,2.05
2019-05-01T10:34:42.978Z,1.80
2019-05-01T10:35:51.597Z,1.80
2019-05-01T10:36:54.502Z,2.08
2019-05-01T10:37:56.616Z,2.12
2019-05-01T10:38:58.139Z,1.62
2019-05-01T10:39:59.529Z,1.85
2019-05-01T10:41:04.200Z,1.80
2019-05-01T10:42:04.224Z,1.70
2019-05-01T10:43:05.741Z,1.92
2019-05-01T10:44:07.151Z,1.80
2019-05-01T10:45:08.970Z,1.90
2019-05-01T10:46:10.392Z,2.02
2019-05-01T10:47:11.926Z,1.70
2019-05-01T10:48:13.400Z,1.67
2019-05-01T10:49:14.909Z,2.12
2019-05-01T10:50:16.293Z,2.10
2019-05-01T10:51:17.800Z,2.00
2019-05-01T10:52:19.344Z,2.00
2019-05-01T10:53:20.924Z,2.27
2019-05-01T10:54:22.432Z,1.87
2019-05-01T10:55:23.847Z,2.15
2019-05-01T10:56:25.359Z,2.50
2019-05-01T10:57:26.767Z,2.10
2019-05-01T10:58:28.128Z,1.95
2019-05-01T10:59:29.608Z,2.00
2019-05-01T11:00:31.051Z,2.17
2019-05-01T11:01:40.205Z,1.82
2019-05-01T11:02:41.588Z,1.80
2019-05-01T11:03:43.004Z,2.22
2019-05-01T11:04:44.417Z,2.08
2019-05-01T11:05:55.646Z,2.45
2019-05-01T11:06:50.062Z,2.10
2019-05-01T11:07:51.609Z,2.02
2019-05-01T11:08:53.025Z,1.92
2019-05-01T11:09:54.432Z,2.10
2019-05-01T11:10:55.945Z,1.98
2019-05-01T11:11:57.461Z,2.02
2019-05-01T11:12:58.886Z,1.67
2019-05-01T11:14:00.366Z,2.00
2019-05-01T11:15:04.260Z,2.10
2019-05-01T11:16:05.744Z,1.98
2019-05-01T11:17:07.253Z,1.75
2019-05-01T11:18:08.775Z,1.80
2019-05-01T11:19:10.301Z,1.92
2019-05-01T11:20:12.118Z,2.05
2019-05-01T11:21:13.528Z,2.33
2019-05-01T11:22:14.952Z,2.00
2019-05-01T11:23:16.373Z,1.92
2019-05-01T11:24:17.825Z,2.00
2019-05-01T11:25:19.911Z,1.80
2019-05-01T11:26:21.401Z,2.02
2019-05-01T11:27:22.794Z,1.77
2019-05-01T11:28:24.235Z,1.80
2019-05-01T11:29:25.608Z,1.82
2019-05-01T11:30:27.112Z,2.02
2019-05-01T11:31:36.238Z,1.82
2019-05-01T11:32:49.285Z,2.02
2019-05-01T11:33:55.115Z,2.40
2019-05-01T11:35:01.227Z,1.90
2019-05-01T11:36:09.659Z,1.82
2019-05-01T11:37:26.610Z,2.08
2019-05-01T11:38:29.901Z,1.90
2019-05-01T11:39:41.214Z,2.02
2019-05-01T11:40:48.125Z,1.82
2019-05-01T11:41:51.518Z,1.90
2019-05-01T11:42:52.988Z,2.40
2019-05-01T11:43:54.394Z,1.95
2019-05-01T11:44:55.783Z,2.05
2019-05-01T11:45:57.276Z,2.00
2019-05-01T11:46:58.860Z,1.80
2019-05-01T11:48:00.349Z,1.90
2019-05-01T11:49:01.841Z,1.72
2019-05-01T11:50:04.365Z,1.95
2019-05-01T11:51:05.739Z,2.15
2019-05-01T11:52:07.245Z,2.10
2019-05-01T11:53:08.632Z,1.75
2019-05-01T11:54:10.024Z,2.20
2019-05-01T11:55:11.683Z,2.10
2019-05-01T11:56:13.074Z,1.82
2019-05-01T11:57:14.467Z,1.80
2019-05-01T11:58:15.850Z,2.20
2019-05-01T11:59:17.252Z,2.10
2019-05-01T12:00:20.551Z,2.00
2019-05-01T12:01:23.733Z,1.87
2019-05-01T12:02:25.140Z,1.77
2019-05-01T12:03:26.513Z,1.90
2019-05-01T12:04:28.016Z,2.30
2019-05-01T12:05:29.424Z,1.77
2019-05-01T12:06:30.932Z,1.75
2019-05-01T12:07:32.444Z,1.72
2019-05-01T12:08:33.856Z,1.72
2019-05-01T12:09:35.261Z,1.65
2019-05-01T12:10:36.794Z,1.92
2019-05-01T12:11:39.984Z,1.90
2019-05-01T12:12:41.585Z,1.70
2019-05-01T12:13:44.169Z,1.62
2019-05-01T12:14:45.776Z,1.95
2019-05-01T12:15:49.088Z,1.72
2019-05-01T12:17:09.233Z,2.20
2019-05-01T12:18:10.646Z,2.27
2019-05-01T12:19:12.369Z,2.08
2019-05-01T12:20:14.181Z,2.30
2019-05-01T12:21:15.609Z,1.85
2019-05-01T12:22:16.993Z,1.95
2019-05-01T12:23:18.389Z,2.30
2019-05-01T12:24:19.766Z,1.90
2019-05-01T12:25:22.229Z,2.00
2019-05-01T12:26:23.645Z,2.10
2019-05-01T12:27:25.056Z,2.27
2019-05-01T12:28:26.468Z,2.10
2019-05-01T12:29:27.869Z,2.47
2019-05-01T12:30:29.384Z,2.20
2019-05-01T12:31:31.337Z,2.35
2019-05-01T12:32:32.794Z,2.15
2019-05-01T12:33:34.298Z,2.42
2019-05-01T12:34:35.673Z,2.40
2019-05-01T12:35:37.074Z,2.33
2019-05-01T12:36:39.404Z,2.50
2019-05-01T12:37:41.507Z,2.10
2019-05-01T12:38:43.919Z,2.35
2019-05-01T12:39:45.640Z,2.17
2019-05-01T12:41:05.760Z,2.30
2019-05-01T12:42:07.291Z,2.40
2019-05-01T12:43:08.669Z,2.67
2019-05-01T12:44:10.064Z,2.40
2019-05-01T12:45:13.760Z,2.70
2019-05-01T12:46:33.621Z,2.25
2019-05-01T12:47:38.219Z,2.85
2019-05-01T12:48:39.730Z,2.50
2019-05-01T12:49:42.857Z,2.17
2019-05-01T12:50:46.166Z,2.58
2019-05-01T12:51:49.473Z,2.12
2019-05-01T12:52:58.547Z,2.70
2019-05-01T12:54:01.825Z,2.52
2019-05-01T12:55:07.817Z,3.00
2019-05-01T12:56:16.739Z,2.58
2019-05-01T12:57:18.914Z,2.72
2019-05-01T12:58:20.310Z,2.70
2019-05-01T12:59:21.696Z,2.80
2019-05-01T13:00:42.800Z,2.50
2019-05-01T13:01:44.184Z,2.77
2019-05-01T13:02:45.675Z,2.50
2019-05-01T13:03:47.079Z,2.27
2019-05-01T13:04:48.620Z,2.27
2019-05-01T13:05:50.126Z,2.60
2019-05-01T13:06:55.004Z,2.70
2019-05-01T13:07:56.397Z,2.58
2019-05-01T13:08:58.003Z,2.67
2019-05-01T13:09:59.582Z,2.67
2019-05-01T13:11:02.373Z,2.83
2019-05-01T13:12:03.857Z,2.75
2019-05-01T13:13:05.353Z,2.67
2019-05-01T13:14:06.840Z,2.92
2019-05-01T13:15:10.595Z,2.50
2019-05-01T13:16:12.016Z,2.80
2019-05-01T13:17:13.442Z,2.33
2019-05-01T13:18:14.962Z,2.75
2019-05-01T13:19:16.386Z,2.60
2019-05-01T13:20:17.876Z,2.35
2019-05-01T13:21:19.282Z,2.40
2019-05-01T13:22:20.765Z,2.40
2019-05-01T13:23:22.169Z,2.72
2019-05-01T13:24:23.606Z,2.77
2019-05-01T13:25:25.092Z,2.40
2019-05-01T13:26:31.481Z,2.50
2019-05-01T13:27:35.765Z,2.47
2019-05-01T13:28:45.066Z,2.37
2019-05-01T13:29:57.162Z,2.58
2019-05-01T13:31:03.132Z,2.37
2019-05-01T13:32:14.949Z,2.80
2019-05-01T13:33:16.438Z,2.47
2019-05-01T13:34:17.830Z,2.50
2019-05-01T13:35:19.404Z,2.27
2019-05-01T13:36:20.784Z,2.10
2019-05-01T13:37:22.193Z,2.50
2019-05-01T13:38:23.673Z,2.55
2019-05-01T13:39:25.121Z,2.47
2019-05-01T13:40:26.520Z,2.33
2019-05-01T13:41:28.009Z,2.33
2019-05-01T13:42:29.406Z,2.45
2019-05-01T13:43:30.798Z,2.50
2019-05-01T13:44:32.186Z,2.08
2019-05-01T13:45:33.609Z,2.20
2019-05-01T13:46:34.980Z,2.00
2019-05-01T13:47:36.382Z,2.40
2019-05-01T13:48:37.756Z,2.45
2019-05-01T13:49:39.160Z,2.12
2019-05-01T13:50:40.882Z,2.17
2019-05-01T13:51:42.269Z,2.33
2019-05-01T13:52:43.766Z,2.05
2019-05-01T13:53:45.179Z,2.08
2019-05-01T13:54:46.597Z,2.35
2019-05-01T13:55:48.034Z,2.12
2019-05-01T13:56:49.602Z,2.35
2019-05-01T13:57:51.119Z,2.00
2019-05-01T13:58:52.527Z,2.05
2019-05-01T13:59:54.941Z,2.27
2019-05-01T14:00:56.552Z,2.00
2019-05-01T14:01:58.040Z,2.00
2019-05-01T14:02:59.444Z,1.85
2019-05-01T14:04:00.925Z,2.12
2019-05-01T14:05:04.332Z,2.00
2019-05-01T14:06:07.545Z,2.50
2019-05-01T14:07:16.725Z,1.70
2019-05-01T14:08:13.456Z,2.20
2019-05-01T14:09:16.978Z,1.90